Time;durP1;ratioP1;P1;durP2;ratioP2;P2;SDS_P1;SDS_P2;PMS_P1;PMS_P2;Temp;Humidity;BMP_temperature;BMP_pressure;BME280_temperature;BME280_humidity;BME280_pressure;Samples;Min_cycle;Max_cycle;Signal;HPM_P1;HPM_P2
2023/12/30 00:00:57;;;;;;;1.55;0.70;;;9.00;58.90;;;;;;4955452;29;20476;-78
2023/12/30 00:03:22;;;;;;;1.77;0.70;;;8.90;59.20;;;;;;4955457;28;20097;-74
2023/12/30 00:05:48;;;;;;;1.48;0.90;;;8.80;59.30;;;;;;4955264;29;20035;-76
2023/12/30 00:08:13;;;;;;;2.15;0.90;;;8.80;59.40;;;;;;4955154;28;20081;-77
2023/12/30 00:10:39;;;;;;;1.13;1.00;;;8.80;59.50;;;;;;4955213;28;20041;-75
2023/12/30 00:13:05;;;;;;;2.50;1.25;;;8.80;59.10;;;;;;4955201;28;20082;-74
2023/12/30 00:15:30;;;;;;;1.77;0.80;;;8.80;58.90;;;;;;4955133;28;20078;-75
2023/12/30 00:17:56;;;;;;;1.98;1.13;;;8.80;59.10;;;;;;4955320;29;20166;-77
2023/12/30 00:20:22;;;;;;;2.55;0.70;;;8.80;59.30;;;;;;4955008;28;20350;-74
2023/12/30 00:22:47;;;;;;;0.68;0.63;;;8.70;59.60;;;;;;4937880;29;20031;-75
2023/12/30 00:25:13;;;;;;;1.35;0.93;;;8.60;59.20;;;;;;4937905;29;20477;-76
2023/12/30 00:27:39;;;;;;;1.70;1.08;;;8.60;59.40;;;;;;4955242;29;20508;-75
2023/12/30 00:30:05;;;;;;;1.88;1.13;;;8.60;59.40;;;;;;4955654;28;20028;-75
2023/12/30 00:32:32;;;;;;;1.33;1.00;;;8.50;59.20;;;;;;4955112;28;20042;-75
2023/12/30 00:34:58;;;;;;;2.58;0.80;;;8.60;59.40;;;;;;4954922;28;20023;-76
2023/12/30 00:37:23;;;;;;;1.38;1.10;;;8.50;60.30;;;;;;4954958;29;20024;-75
2023/12/30 00:39:49;;;;;;;2.97;1.23;;;8.50;59.50;;;;;;4954887;29;20038;-75
2023/12/30 00:42:15;;;;;;;2.10;0.90;;;8.50;59.60;;;;;;4954854;29;20063;-75
2023/12/30 00:44:41;;;;;;;3.15;1.30;;;8.50;59.60;;;;;;4954974;29;20376;-75
2023/12/30 00:47:06;;;;;;;3.60;1.05;;;8.50;59.40;;;;;;4954697;28;20137;-75
2023/12/30 00:49:32;;;;;;;3.35;1.20;;;8.50;59.30;;;;;;4954710;28;20425;-75
2023/12/30 00:51:57;;;;;;;1.58;1.05;;;8.40;59.30;;;;;;4954713;29;20118;-75
2023/12/30 00:54:23;;;;;;;2.33;0.90;;;8.30;59.60;;;;;;4954641;28;20059;-75
2023/12/30 00:56:49;;;;;;;2.42;1.23;;;8.30;59.80;;;;;;4954623;28;20412;-75
2023/12/30 00:59:14;;;;;;;2.72;1.20;;;8.30;59.70;;;;;;4954716;29;20082;-75
2023/12/30 01:01:40;;;;;;;3.63;1.48;;;8.30;59.60;;;;;;4954637;28;20381;-75
2023/12/30 01:04:06;;;;;;;2.25;1.00;;;8.20;59.40;;;;;;4937430;29;20031;-75
2023/12/30 01:06:31;;;;;;;2.42;0.90;;;8.10;59.40;;;;;;4954579;28;20444;-75
2023/12/30 01:08:58;;;;;;;1.58;0.93;;;8.10;59.00;;;;;;4954482;29;20051;-75
2023/12/30 01:11:23;;;;;;;1.58;1.05;;;8.10;59.20;;;;;;4954620;28;20023;-75
2023/12/30 01:13:49;;;;;;;2.05;0.90;;;8.20;58.70;;;;;;4954684;29;20519;-75
2023/12/30 01:16:16;;;;;;;3.67;0.98;;;8.20;58.10;;;;;;4937218;29;20463;-75
2023/12/30 01:18:42;;;;;;;3.88;0.95;;;8.20;58.00;;;;;;4954553;29;20050;-75
2023/12/30 01:21:08;;;;;;;1.58;1.15;;;8.20;57.60;;;;;;4937250;29;20058;-75
2023/12/30 01:23:33;;;;;;;2.10;0.90;;;8.10;57.90;;;;;;4954477;29;20023;-75
2023/12/30 01:25:59;;;;;;;1.42;0.85;;;8.10;58.00;;;;;;4954488;28;20057;-75
2023/12/30 01:28:24;;;;;;;5.20;1.08;;;8.10;58.20;;;;;;4937198;29;20395;-75
2023/12/30 01:30:50;;;;;;;3.90;0.98;;;8.00;58.20;;;;;;4954393;28;20034;-75
2023/12/30 01:33:15;;;;;;;5.70;1.00;;;7.90;58.40;;;;;;4939605;29;20035;-76
2023/12/30 01:35:41;;;;;;;2.05;0.90;;;7.90;58.90;;;;;;4958001;29;20034;-76
2023/12/30 01:38:06;;;;;;;1.70;1.00;;;7.90;58.90;;;;;;4957791;28;20027;-75
2023/12/30 01:40:32;;;;;;;2.92;1.20;;;7.90;59.10;;;;;;4957887;29;20039;-75
2023/12/30 01:43:02;;;;;;;4.10;1.20;;;7.90;59.50;;;;;;4958469;28;20020;-75
2023/12/30 01:45:28;;;;;;;2.28;1.30;;;7.80;59.90;;;;;;4958697;28;20034;-75
2023/12/30 01:47:54;;;;;;;1.58;0.95;;;7.80;60.20;;;;;;4964566;28;20016;-75
2023/12/30 01:50:21;;;;;;;2.60;1.00;;;7.90;60.30;;;;;;4959035;28;20038;-74
2023/12/30 01:52:48;;;;;;;3.60;1.05;;;7.90;60.90;;;;;;4957826;28;20049;-74
2023/12/30 01:55:15;;;;;;;4.05;1.20;;;7.90;61.10;;;;;;4957685;29;20027;-74
2023/12/30 01:57:42;;;;;;;3.88;1.08;;;7.90;61.20;;;;;;4957825;28;20408;-73
2023/12/30 02:00:09;;;;;;;2.67;1.10;;;8.00;61.30;;;;;;4957455;28;20094;-75
2023/12/30 02:02:34;;;;;;;2.83;0.85;;;7.90;61.20;;;;;;4940070;29;20123;-75
2023/12/30 02:05:00;;;;;;;1.42;0.70;;;8.00;61.20;;;;;;4940172;29;20024;-74
2023/12/30 02:07:26;;;;;;;2.45;1.00;;;8.00;61.40;;;;;;4939971;29;20426;-74
2023/12/30 02:09:52;;;;;;;3.90;1.17;;;7.90;61.70;;;;;;4957153;29;20038;-75
2023/12/30 02:12:17;;;;;;;1.65;0.82;;;8.00;61.90;;;;;;4957282;28;20038;-75
2023/12/30 02:14:42;;;;;;;1.50;0.90;;;8.00;62.40;;;;;;4957481;29;20123;-75
2023/12/30 02:17:08;;;;;;;1.80;1.05;;;8.00;62.70;;;;;;4957371;28;20507;-75
2023/12/30 02:19:34;;;;;;;3.78;1.00;;;8.00;62.70;;;;;;4940243;29;20480;-75
2023/12/30 02:21:59;;;;;;;3.67;0.80;;;8.00;63.30;;;;;;4957091;29;20047;-75
2023/12/30 02:24:25;;;;;;;2.30;0.70;;;8.00;63.90;;;;;;4957206;29;20062;-75
2023/12/30 02:26:51;;;;;;;3.92;0.85;;;8.10;64.20;;;;;;4956915;29;20098;-75
2023/12/30 02:29:16;;;;;;;1.95;0.70;;;8.10;64.50;;;;;;4957052;29;20023;-75
2023/12/30 02:31:48;;;;;;;2.15;0.70;;;8.20;64.60;;;;;;4957345;28;20087;-74
2023/12/30 02:34:18;;;;;;;2.22;0.50;;;8.20;64.90;;;;;;4957007;29;20027;-74
2023/12/30 02:36:47;;;;;;;5.13;1.38;;;8.20;65.40;;;;;;4956834;29;20031;-74
2023/12/30 02:39:13;;;;;;;1.95;0.70;;;8.20;65.60;;;;;;4939581;29;20070;-74
2023/12/30 02:41:39;;;;;;;3.90;1.02;;;8.20;65.70;;;;;;4956807;28;20540;-74
2023/12/30 02:44:05;;;;;;;2.15;0.80;;;8.20;66.30;;;;;;4938311;29;20119;-75
2023/12/30 02:46:31;;;;;;;4.65;1.00;;;8.20;66.60;;;;;;4956625;28;20400;-74
2023/12/30 02:48:57;;;;;;;2.72;0.80;;;8.20;66.70;;;;;;4956564;28;20051;-75
2023/12/30 02:51:23;;;;;;;5.55;0.60;;;8.30;66.70;;;;;;4956646;28;20460;-75
2023/12/30 02:53:49;;;;;;;1.40;0.77;;;8.30;67.50;;;;;;4956427;29;20027;-75
2023/12/30 02:56:27;;;;;;;4.40;0.85;;;8.30;67.10;;;;;;4956329;28;20452;-75
2023/12/30 02:58:58;;;;;;;2.42;0.70;;;8.30;66.90;;;;;;4956390;29;20476;-75
2023/12/30 03:01:25;;;;;;;2.42;0.55;;;8.40;67.00;;;;;;4956405;29;20058;-75
2023/12/30 03:03:53;;;;;;;2.67;0.70;;;8.40;66.90;;;;;;4956256;28;20078;-75
2023/12/30 03:06:19;;;;;;;4.10;0.60;;;8.40;66.80;;;;;;4956329;29;20031;-75
2023/12/30 03:08:44;;;;;;;3.50;0.70;;;8.40;66.90;;;;;;4957297;28;20105;-75
2023/12/30 03:11:10;;;;;;;2.13;0.50;;;8.40;67.10;;;;;;4956203;29;20038;-74
2023/12/30 03:13:36;;;;;;;8.35;1.02;;;8.40;67.00;;;;;;4956072;28;20162;-75
2023/12/30 03:16:03;;;;;;;1.63;0.75;;;8.40;67.40;;;;;;4956094;28;20050;-74
2023/12/30 03:18:28;;;;;;;2.95;0.63;;;8.50;68.30;;;;;;4938779;29;20110;-75
2023/12/30 03:20:54;;;;;;;3.80;0.68;;;8.50;68.00;;;;;;4956007;28;20134;-74
2023/12/30 03:23:19;;;;;;;4.00;0.63;;;8.50;68.10;;;;;;4956057;29;20039;-74
2023/12/30 03:25:45;;;;;;;3.25;0.43;;;8.50;68.20;;;;;;4938702;29;20086;-76
2023/12/30 03:28:10;;;;;;;4.43;0.70;;;8.40;68.10;;;;;;4955904;29;20029;-74
2023/12/30 03:30:36;;;;;;;4.97;0.50;;;8.50;67.90;;;;;;4955886;29;20358;-75
2023/12/30 03:33:01;;;;;;;3.00;0.70;;;8.50;68.00;;;;;;4955758;28;20027;-74
2023/12/30 03:35:27;;;;;;;1.10;0.50;;;8.50;68.60;;;;;;4938535;29;20023;-75
2023/12/30 03:37:52;;;;;;;3.53;0.70;;;8.50;68.80;;;;;;4955667;28;20114;-75
2023/12/30 03:40:18;;;;;;;3.17;0.55;;;8.50;68.60;;;;;;4955640;28;20035;-75
2023/12/30 03:42:44;;;;;;;3.40;0.90;;;8.50;68.50;;;;;;4955598;28;20480;-75
2023/12/30 03:45:09;;;;;;;2.72;0.60;;;8.50;68.60;;;;;;4938326;29;20088;-74
2023/12/30 03:47:35;;;;;;;1.88;0.60;;;8.50;68.60;;;;;;4955495;29;20039;-74
2023/12/30 03:50:01;;;;;;;4.25;0.60;;;8.50;69.00;;;;;;4955564;28;20019;-75
2023/12/30 03:52:29;;;;;;;3.58;0.80;;;8.50;69.40;;;;;;4955588;28;20114;-75
2023/12/30 03:54:55;;;;;;;3.50;0.70;;;8.50;69.60;;;;;;4955069;28;20020;-75
2023/12/30 03:57:21;;;;;;;2.60;0.45;;;8.50;69.60;;;;;;4955269;28;20033;-76
2023/12/30 03:59:47;;;;;;;5.72;0.80;;;8.50;69.50;;;;;;4955429;29;20030;-74
2023/12/30 04:02:17;;;;;;;5.30;0.90;;;8.50;69.30;;;;;;4938295;29;20382;-74
2023/12/30 04:04:43;;;;;;;2.80;0.80;;;8.50;69.60;;;;;;4937995;29;20031;-75
2023/12/30 04:07:08;;;;;;;4.15;0.75;;;8.50;69.90;;;;;;4954947;28;20070;-75
2023/12/30 04:09:34;;;;;;;2.28;0.50;;;8.50;69.90;;;;;;4955208;29;20079;-75
2023/12/30 04:11:59;;;;;;;4.47;0.82;;;8.60;69.90;;;;;;4955261;28;20047;-75
2023/12/30 04:14:25;;;;;;;1.38;0.73;;;8.50;70.00;;;;;;4955298;29;20062;-74
2023/12/30 04:16:50;;;;;;;2.25;0.60;;;8.60;69.70;;;;;;4937840;29;20054;-74
2023/12/30 04:19:16;;;;;;;1.90;0.70;;;8.50;69.70;;;;;;4955118;29;20062;-74
2023/12/30 04:21:41;;;;;;;3.92;0.80;;;8.50;70.00;;;;;;4955349;28;20027;-75
2023/12/30 04:24:07;;;;;;;2.17;0.63;;;8.50;70.50;;;;;;4954983;29;20034;-74
2023/12/30 04:26:33;;;;;;;2.33;0.60;;;8.50;70.70;;;;;;4954952;28;20038;-75
2023/12/30 04:28:59;;;;;;;2.50;0.68;;;8.50;71.00;;;;;;4956129;28;20477;-75
2023/12/30 04:31:25;;;;;;;2.20;0.88;;;8.50;71.10;;;;;;4955050;29;20036;-74
2023/12/30 04:33:51;;;;;;;3.13;1.02;;;8.40;71.50;;;;;;4954830;29;20485;-78
2023/12/30 04:36:16;;;;;;;4.72;1.08;;;8.50;71.70;;;;;;4937743;29;20031;-75
2023/12/30 04:38:42;;;;;;;2.42;0.80;;;8.50;71.80;;;;;;4954978;28;20074;-77
2023/12/30 04:41:07;;;;;;;3.65;1.10;;;8.60;71.80;;;;;;4954900;29;20094;-74
2023/12/30 04:43:33;;;;;;;4.28;0.85;;;8.50;72.00;;;;;;4954890;28;20023;-75
2023/12/30 04:45:59;;;;;;;2.75;1.00;;;8.50;71.80;;;;;;4954674;29;20047;-75
2023/12/30 04:48:24;;;;;;;3.08;0.80;;;8.50;72.10;;;;;;4954653;28;20070;-75
2023/12/30 04:50:50;;;;;;;1.60;0.70;;;8.50;71.90;;;;;;4954733;29;20204;-75
2023/12/30 04:53:15;;;;;;;2.33;0.80;;;8.60;71.40;;;;;;4954402;28;20106;-75
2023/12/30 04:55:41;;;;;;;1.98;0.75;;;8.60;71.20;;;;;;4954743;28;20038;-75
2023/12/30 04:58:06;;;;;;;5.57;0.88;;;8.60;71.30;;;;;;4954748;28;20026;-74
2023/12/30 05:00:32;;;;;;;3.55;0.90;;;8.60;71.50;;;;;;4937382;29;20510;-75
2023/12/30 05:02:58;;;;;;;3.22;0.95;;;8.60;71.50;;;;;;4954634;28;20086;-75
2023/12/30 05:05:23;;;;;;;2.67;0.80;;;8.60;71.80;;;;;;4954570;29;20472;-74
2023/12/30 05:07:49;;;;;;;3.92;0.70;;;8.60;71.70;;;;;;4956291;28;20051;-75
2023/12/30 05:10:14;;;;;;;3.00;1.00;;;8.60;72.00;;;;;;4940956;29;20028;-76
2023/12/30 05:12:40;;;;;;;0.77;0.68;;;8.50;72.20;;;;;;4941152;29;20031;-74
2023/12/30 05:15:06;;;;;;;0.75;0.75;;;8.50;72.30;;;;;;4958331;28;20046;-75
2023/12/30 05:17:32;;;;;;;10.38;1.05;;;8.60;72.10;;;;;;4958215;29;20083;-74
2023/12/30 05:19:57;;;;;;;2.13;0.77;;;8.60;72.00;;;;;;4958308;28;20031;-75
2023/12/30 05:22:23;;;;;;;4.65;0.70;;;8.60;71.60;;;;;;4940998;29;20481;-76
2023/12/30 05:24:48;;;;;;;2.92;0.80;;;8.70;71.40;;;;;;4958176;28;20038;-76
2023/12/30 05:27:14;;;;;;;2.13;0.93;;;8.70;71.20;;;;;;4940735;29;20038;-75
2023/12/30 05:29:39;;;;;;;1.98;0.80;;;8.70;71.10;;;;;;4957584;28;20028;-75
2023/12/30 05:32:05;;;;;;;2.75;0.70;;;8.70;71.40;;;;;;4958021;29;20023;-75
2023/12/30 05:34:31;;;;;;;1.40;0.70;;;8.70;71.20;;;;;;4957835;28;20361;-76
2023/12/30 05:36:56;;;;;;;1.88;0.70;;;8.70;71.30;;;;;;4957815;29;20086;-75
2023/12/30 05:39:22;;;;;;;2.55;0.85;;;8.70;71.20;;;;;;4940565;29;20019;-75
2023/12/30 05:41:47;;;;;;;2.15;0.65;;;8.80;70.70;;;;;;4957833;29;20110;-75
2023/12/30 05:44:13;;;;;;;0.95;0.63;;;8.70;71.30;;;;;;4957650;28;20023;-75
2023/12/30 05:46:38;;;;;;;3.90;0.70;;;8.60;72.80;;;;;;4957665;28;20043;-75
2023/12/30 05:49:04;;;;;;;2.15;1.00;;;8.60;74.20;;;;;;4958362;28;20030;-75
2023/12/30 05:51:29;;;;;;;2.33;0.85;;;8.50;75.70;;;;;;4957645;28;20023;-75
2023/12/30 05:53:55;;;;;;;2.25;0.77;;;8.30;76.90;;;;;;4957504;28;20099;-75
2023/12/30 05:56:26;;;;;;;1.35;0.80;;;8.30;77.60;;;;;;4957530;28;20106;-75
2023/12/30 05:58:55;;;;;;;1.75;0.80;;;8.30;77.80;;;;;;4957533;29;20027;-75
2023/12/30 06:01:20;;;;;;;1.50;0.80;;;8.20;78.20;;;;;;4958570;28;20079;-75
2023/12/30 06:03:46;;;;;;;3.75;0.95;;;8.20;78.30;;;;;;4958962;28;20073;-75
2023/12/30 06:06:11;;;;;;;2.58;0.70;;;8.10;78.70;;;;;;4965024;28;20031;-76
2023/12/30 06:08:37;;;;;;;1.55;0.70;;;8.10;78.80;;;;;;4958266;28;20047;-75
2023/12/30 06:11:02;;;;;;;1.10;0.82;;;8.10;78.80;;;;;;4940106;29;20027;-76
2023/12/30 06:13:28;;;;;;;4.68;1.00;;;8.10;79.00;;;;;;4957223;29;20086;-76
2023/12/30 06:15:56;;;;;;;2.22;1.23;;;8.10;79.20;;;;;;4957218;28;20073;-75
2023/12/30 06:18:26;;;;;;;2.75;1.13;;;8.10;79.90;;;;;;4956814;28;20019;-76
2023/12/30 06:20:52;;;;;;;1.70;0.80;;;8.10;80.50;;;;;;4957073;29;20042;-76
2023/12/30 06:23:17;;;;;;;3.90;1.40;;;8.00;80.50;;;;;;4957084;28;20027;-76
2023/12/30 06:25:43;;;;;;;1.98;0.85;;;8.00;81.40;;;;;;4939647;29;20481;-76
2023/12/30 06:28:08;;;;;;;2.63;1.00;;;8.00;81.80;;;;;;4956942;28;20480;-76
2023/12/30 06:30:34;;;;;;;2.40;1.00;;;8.00;81.90;;;;;;4956932;28;20023;-75
2023/12/30 06:33:06;;;;;;;1.50;0.80;;;7.90;81.70;;;;;;4956841;29;20031;-76
2023/12/30 06:35:32;;;;;;;4.40;1.00;;;7.80;81.50;;;;;;4956733;29;20110;-76
2023/12/30 06:37:57;;;;;;;2.42;0.90;;;7.90;81.50;;;;;;4939527;29;20033;-75
2023/12/30 06:40:23;;;;;;;2.42;0.80;;;7.90;81.00;;;;;;4939585;29;20027;-75
2023/12/30 06:42:48;;;;;;;2.97;0.88;;;7.90;81.20;;;;;;4956663;29;20106;-75
2023/12/30 06:45:14;;;;;;;3.28;1.10;;;7.90;80.70;;;;;;4956783;28;20107;-75
2023/12/30 06:47:41;;;;;;;4.78;1.15;;;7.90;81.20;;;;;;4956525;28;20043;-75
2023/12/30 06:50:07;;;;;;;3.67;0.88;;;7.90;81.40;;;;;;4956619;29;20046;-74
2023/12/30 06:52:33;;;;;;;2.60;0.82;;;7.90;81.60;;;;;;4956581;29;20031;-74
2023/12/30 06:54:59;;;;;;;0.90;0.68;;;7.80;81.60;;;;;;4956593;28;20027;-75
2023/12/30 06:57:25;;;;;;;3.08;0.65;;;7.80;81.60;;;;;;4956674;29;20027;-74
2023/12/30 06:59:51;;;;;;;3.33;1.05;;;7.90;80.70;;;;;;4956352;28;20081;-75
2023/12/30 07:02:16;;;;;;;4.68;1.40;;;7.90;80.80;;;;;;4956356;28;20031;-75
2023/12/30 07:04:42;;;;;;;1.60;0.77;;;7.90;80.80;;;;;;4956385;28;20023;-75
2023/12/30 07:07:07;;;;;;;3.78;1.20;;;7.90;80.90;;;;;;4957146;28;20133;-75
2023/12/30 07:09:33;;;;;;;2.03;0.82;;;8.00;81.50;;;;;;4956150;29;20030;-75
2023/12/30 07:11:58;;;;;;;3.72;0.95;;;8.00;80.80;;;;;;4956084;28;20106;-76
2023/12/30 07:14:24;;;;;;;3.78;0.82;;;8.00;81.00;;;;;;4938792;29;20029;-75
2023/12/30 07:16:50;;;;;;;0.95;0.60;;;8.00;81.50;;;;;;4956007;28;20027;-75
2023/12/30 07:19:16;;;;;;;3.13;0.90;;;8.00;81.60;;;;;;4955976;28;20043;-75
2023/12/30 07:21:42;;;;;;;4.00;0.80;;;8.00;81.10;;;;;;4955924;28;20022;-75
2023/12/30 07:24:10;;;;;;;3.20;0.60;;;8.00;80.80;;;;;;4938760;29;20027;-75
2023/12/30 07:26:36;;;;;;;2.15;1.20;;;8.00;80.50;;;;;;4938558;29;20089;-75
2023/12/30 07:29:01;;;;;;;1.15;0.70;;;8.10;80.90;;;;;;4956290;28;20031;-75
2023/12/30 07:31:27;;;;;;;4.45;0.90;;;8.00;80.60;;;;;;4937868;29;20178;-76
2023/12/30 07:33:52;;;;;;;1.25;0.52;;;8.00;80.90;;;;;;4938497;29;20030;-74
2023/12/30 07:36:26;;;;;;;1.73;0.60;;;8.00;80.70;;;;;;4938639;29;20023;-77
2023/12/30 07:38:51;;;;;;;1.88;0.57;;;8.10;80.80;;;;;;4955600;29;20027;-74
2023/12/30 07:41:17;;;;;;;2.53;0.60;;;8.10;81.20;;;;;;4938457;29;20027;-74
2023/12/30 07:43:42;;;;;;;2.47;0.60;;;8.00;81.50;;;;;;4938529;29;20055;-73
2023/12/30 07:46:08;;;;;;;1.15;0.70;;;8.00;82.60;;;;;;4955446;28;20037;-75
2023/12/30 07:48:34;;;;;;;1.17;0.77;;;8.00;81.10;;;;;;4955440;29;20031;-76
2023/12/30 07:51:00;;;;;;;3.03;0.80;;;8.00;81.20;;;;;;4938277;29;20029;-75
2023/12/30 07:53:25;;;;;;;5.07;0.90;;;8.10;81.70;;;;;;4955446;29;20114;-75
2023/12/30 07:55:51;;;;;;;2.25;0.73;;;8.20;81.20;;;;;;4938053;29;20445;-75
2023/12/30 07:58:16;;;;;;;4.82;0.77;;;8.10;80.20;;;;;;4938183;29;20070;-75
2023/12/30 08:00:42;;;;;;;0.60;0.30;;;8.20;79.60;;;;;;4938717;29;20031;-76
2023/12/30 08:03:07;;;;;;;2.00;0.50;;;8.20;78.50;;;;;;4939492;29;20019;-75
2023/12/30 08:05:33;;;;;;;1.25;0.40;;;8.20;78.80;;;;;;4938417;29;20027;-78
2023/12/30 08:07:59;;;;;;;1.67;0.50;;;8.20;78.00;;;;;;4955685;29;20089;-81
2023/12/30 08:10:24;;;;;;;0.60;0.40;;;8.30;77.70;;;;;;4955759;28;20051;-82
2023/12/30 08:12:50;;;;;;;0.55;0.43;;;8.40;77.20;;;;;;4954973;28;20063;-76
2023/12/30 08:15:16;;;;;;;3.10;0.40;;;8.40;76.80;;;;;;4955256;29;20045;-81
2023/12/30 08:17:41;;;;;;;2.13;0.70;;;8.40;77.60;;;;;;4937988;29;20031;-76
2023/12/30 08:20:08;;;;;;;1.02;0.50;;;8.50;77.20;;;;;;4938160;29;20473;-76
2023/12/30 08:22:33;;;;;;;1.85;0.68;;;8.40;76.60;;;;;;4938297;29;20384;-77
2023/12/30 08:24:59;;;;;;;3.40;0.70;;;8.40;76.40;;;;;;4937934;29;20035;-75
2023/12/30 08:27:24;;;;;;;1.23;0.57;;;8.50;76.60;;;;;;4937885;29;20042;-77
2023/12/30 08:29:50;;;;;;;1.38;0.50;;;8.50;75.90;;;;;;4921925;29;20488;-78
2023/12/30 08:32:16;;;;;;;1.17;0.45;;;8.50;75.70;;;;;;4938192;29;20031;-75
2023/12/30 08:34:44;;;;;;;1.50;0.43;;;8.60;75.60;;;;;;4937920;29;20023;-79
2023/12/30 08:37:09;;;;;;;1.70;0.57;;;8.60;75.50;;;;;;4954714;28;20066;-75
2023/12/30 08:39:38;;;;;;;0.65;0.50;;;8.60;75.40;;;;;;4938131;29;20059;-79
2023/12/30 08:42:05;;;;;;;1.55;0.60;;;8.60;75.50;;;;;;4939805;29;20542;-75
2023/12/30 08:44:31;;;;;;;0.40;0.40;;;8.60;75.60;;;;;;4941785;29;20043;-80
2023/12/30 08:46:57;;;;;;;1.40;0.57;;;8.60;75.40;;;;;;4941189;29;20039;-75
2023/12/30 08:49:23;;;;;;;0.73;0.40;;;8.60;75.50;;;;;;4941793;29;20082;-75
2023/12/30 08:51:48;;;;;;;1.63;0.98;;;8.70;75.80;;;;;;4925896;29;20377;-75
2023/12/30 08:54:14;;;;;;;2.17;0.50;;;8.80;75.60;;;;;;4941521;29;20403;-77
2023/12/30 08:56:40;;;;;;;1.23;0.60;;;8.80;74.70;;;;;;4941542;29;20031;-75
2023/12/30 08:59:06;;;;;;;2.03;0.65;;;8.70;74.60;;;;;;4941342;29;20026;-74
2023/12/30 09:01:32;;;;;;;1.80;0.43;;;8.80;74.40;;;;;;4941608;29;20035;-76
2023/12/30 09:03:59;;;;;;;2.60;0.63;;;8.90;75.00;;;;;;4942104;29;20023;-75
2023/12/30 09:06:25;;;;;;;4.15;0.77;;;8.90;74.70;;;;;;4942525;29;20074;-76
2023/12/30 09:08:50;;;;;;;1.13;0.45;;;8.90;74.70;;;;;;4942209;29;20113;-78
2023/12/30 09:11:23;;;;;;;1.27;0.70;;;8.90;74.70;;;;;;4941666;29;20023;-77
2023/12/30 09:13:51;;;;;;;0.80;0.35;;;9.00;74.30;;;;;;4958518;28;20045;-76
2023/12/30 09:16:17;;;;;;;1.05;0.50;;;9.10;73.30;;;;;;4941629;29;20074;-77
2023/12/30 09:18:42;;;;;;;1.95;0.30;;;9.00;73.70;;;;;;4941068;29;20035;-75
2023/12/30 09:21:08;;;;;;;1.23;0.77;;;9.10;73.90;;;;;;4940889;29;20051;-74
2023/12/30 09:23:34;;;;;;;3.15;0.70;;;9.10;74.00;;;;;;4940357;29;20046;-74
2023/12/30 09:26:00;;;;;;;0.80;0.50;;;9.20;74.20;;;;;;4940694;29;20484;-76
2023/12/30 09:28:25;;;;;;;1.45;0.47;;;9.40;73.10;;;;;;4940918;29;20035;-76
2023/12/30 09:30:51;;;;;;;1.60;0.70;;;9.80;71.80;;;;;;4941022;29;20180;-77
2023/12/30 09:33:16;;;;;;;2.10;0.80;;;10.60;69.10;;;;;;4957840;29;20035;-74
2023/12/30 09:35:42;;;;;;;0.95;0.75;;;11.00;66.80;;;;;;4940454;29;20024;-75
2023/12/30 09:38:08;;;;;;;0.70;0.35;;;11.30;65.60;;;;;;4940591;29;20023;-75
2023/12/30 09:40:33;;;;;;;3.03;0.73;;;11.40;64.90;;;;;;4940927;29;20051;-79
2023/12/30 09:43:04;;;;;;;0.95;0.50;;;11.40;63.10;;;;;;4940945;29;20035;-76
2023/12/30 09:45:46;;;;;;;1.90;0.80;;;11.20;63.90;;;;;;4957929;29;20038;-76
2023/12/30 09:48:13;;;;;;;3.03;1.08;;;11.10;63.80;;;;;;4940387;29;20023;-74
2023/12/30 09:50:38;;;;;;;2.63;1.55;;;10.90;63.80;;;;;;4940663;29;20576;-74
2023/12/30 09:53:04;;;;;;;3.70;1.40;;;10.90;63.80;;;;;;4940036;29;20027;-76
2023/12/30 09:55:29;;;;;;;0.68;0.50;;;10.70;64.70;;;;;;4940511;29;20078;-74
2023/12/30 09:57:55;;;;;;;0.68;0.43;;;10.80;64.20;;;;;;4940429;29;20023;-77
2023/12/30 10:00:24;;;;;;;2.33;0.50;;;10.70;64.30;;;;;;4940281;29;20547;-77
2023/12/30 10:02:50;;;;;;;1.10;0.65;;;10.50;65.10;;;;;;4940072;29;20419;-75
2023/12/30 10:05:17;;;;;;;0.68;0.55;;;10.60;65.40;;;;;;4940392;29;20039;-75
2023/12/30 10:07:43;;;;;;;0.90;0.60;;;10.50;65.80;;;;;;4940069;29;20063;-76
2023/12/30 10:10:09;;;;;;;4.85;0.70;;;10.30;66.60;;;;;;4940151;29;20086;-76
2023/12/30 10:12:35;;;;;;;0.95;0.60;;;10.30;66.90;;;;;;4940123;29;20034;-75
2023/12/30 10:15:00;;;;;;;0.90;0.35;;;10.30;66.50;;;;;;4957476;28;20023;-75
2023/12/30 10:17:26;;;;;;;2.03;0.50;;;10.40;66.20;;;;;;4941125;29;20038;-75
2023/12/30 10:19:52;;;;;;;2.03;0.50;;;10.70;65.60;;;;;;4939812;29;20023;-74
2023/12/30 10:22:18;;;;;;;2.35;0.73;;;11.00;63.80;;;;;;4942099;29;20043;-75
2023/12/30 10:24:45;;;;;;;1.85;0.70;;;11.60;62.30;;;;;;4950658;29;20023;-75
2023/12/30 10:27:10;;;;;;;1.38;0.60;;;11.80;60.10;;;;;;4940584;29;20501;-77
2023/12/30 10:29:36;;;;;;;1.20;0.60;;;12.20;58.90;;;;;;4939617;29;20075;-76
2023/12/30 10:32:03;;;;;;;1.80;0.40;;;12.20;58.30;;;;;;4956874;28;20106;-75
2023/12/30 10:34:30;;;;;;;1.25;0.80;;;11.80;58.80;;;;;;4957310;29;20027;-74
2023/12/30 10:36:59;;;;;;;1.42;0.98;;;11.70;59.70;;;;;;4908679;29;20441;-76
2023/12/30 10:39:25;;;;;;;1.40;0.90;;;11.40;61.10;;;;;;4939584;29;20476;-77
2023/12/30 10:41:51;;;;;;;1.60;0.88;;;11.30;61.50;;;;;;4939800;29;20098;-78
2023/12/30 10:44:17;;;;;;;2.47;0.80;;;11.00;62.40;;;;;;4939688;29;20027;-77
2023/12/30 10:46:47;;;;;;;0.95;0.77;;;10.90;63.00;;;;;;4923537;29;20043;-75
2023/12/30 10:49:22;;;;;;;1.88;0.85;;;11.00;62.40;;;;;;4939355;29;20111;-76
2023/12/30 10:51:49;;;;;;;1.83;0.67;;;11.20;60.80;;;;;;4938989;29;20027;-75
2023/12/30 10:54:25;;;;;;;3.75;0.80;;;11.40;60.90;;;;;;4939042;29;20020;-76
2023/12/30 10:57:01;;;;;;;2.95;0.82;;;11.90;58.60;;;;;;4938686;29;20082;-76
2023/12/30 10:59:28;;;;;;;2.75;1.02;;;12.80;56.60;;;;;;4939051;29;20106;-76
2023/12/30 11:01:54;;;;;;;1.90;0.63;;;13.10;54.10;;;;;;4923506;29;20036;-76
2023/12/30 11:04:21;;;;;;;2.50;1.20;;;13.80;52.10;;;;;;4938412;29;20436;-76
2023/12/30 11:06:55;;;;;;;1.50;1.00;;;14.30;51.80;;;;;;4938553;28;20031;-76
2023/12/30 11:09:27;;;;;;;2.88;0.90;;;14.80;49.50;;;;;;4938495;29;20118;-75
2023/12/30 11:11:59;;;;;;;1.15;0.70;;;14.60;47.90;;;;;;4939213;29;20042;-76
2023/12/30 11:14:24;;;;;;;1.30;0.80;;;13.70;50.30;;;;;;4938351;29;20034;-75
2023/12/30 11:19:55;;;;;;;1.00;0.68;;;13.00;53.00;;;;;;5427767;23;20060;-75
2023/12/30 11:22:22;;;;;;;1.40;0.90;;;12.80;53.90;;;;;;4938906;29;20539;-75
2023/12/30 11:24:47;;;;;;;1.73;0.82;;;12.60;54.50;;;;;;4955994;28;20523;-76
2023/12/30 11:27:13;;;;;;;3.72;1.35;;;12.60;54.80;;;;;;4938795;29;20070;-80
2023/12/30 11:29:40;;;;;;;1.75;1.10;;;12.60;54.70;;;;;;4955967;29;20024;-80
2023/12/30 11:32:07;;;;;;;1.98;1.38;;;13.30;53.60;;;;;;4939369;29;20035;-76
2023/12/30 11:34:32;;;;;;;2.28;0.70;;;13.90;51.70;;;;;;4955638;28;20480;-80
2023/12/30 11:36:59;;;;;;;0.95;0.70;;;15.00;49.60;;;;;;4955943;29;20031;-79
2023/12/30 11:39:30;;;;;;;0.93;0.60;;;16.10;46.10;;;;;;4955693;29;20031;-80
2023/12/30 11:48:02;;;;;;;1.60;0.30;;;19.30;37.10;;;;;;4923051;29;20480;-76
2023/12/30 11:50:28;;;;;;;0.68;0.40;;;20.80;33.10;;;;;;4955589;28;20034;-79
2023/12/30 11:52:55;;;;;;;0.55;0.40;;;20.50;32.50;;;;;;4938277;29;20030;-78
2023/12/30 11:55:22;;;;;;;0.70;0.50;;;21.30;32.30;;;;;;4955922;28;20027;-80
2023/12/30 11:57:48;;;;;;;1.17;0.60;;;21.90;30.40;;;;;;4938932;29;20023;-76
2023/12/30 12:03:16;;;;;;;1.33;0.50;;;21.30;29.80;;;;;;4961983;23;20066;-75
2023/12/30 12:05:42;;;;;;;1.30;0.63;;;19.00;34.90;;;;;;4937559;29;20023;-76
2023/12/30 12:08:11;;;;;;;0.30;0.30;;;17.90;37.10;;;;;;4954889;28;20066;-82
2023/12/30 12:10:36;;;;;;;0.63;0.35;;;17.30;38.10;;;;;;4937912;29;20023;-80
2023/12/30 12:13:09;;;;;;;1.27;0.40;;;16.20;40.50;;;;;;4954979;29;20456;-75
2023/12/30 12:15:34;;;;;;;1.27;0.38;;;14.70;44.90;;;;;;4937611;28;20115;-79
2023/12/30 12:18:02;;;;;;;3.25;0.90;;;14.80;45.90;;;;;;4955818;28;20066;-75
2023/12/30 12:20:28;;;;;;;0.55;0.35;;;15.70;44.60;;;;;;4938348;29;20063;-77
2023/12/30 12:22:54;;;;;;;0.82;0.30;;;16.30;42.20;;;;;;4937895;29;20031;-77
2023/12/30 12:25:20;;;;;;;0.55;0.45;;;16.90;40.50;;;;;;4937893;29;20077;-75
2023/12/30 12:28:15;;;;;;;;;;;;;;;;;;;;;
2023/12/30 12:30:43;;;;;;;0.38;0.20;;;17.10;40.20;;;;;;4941519;29;20512;-76
2023/12/30 12:33:11;;;;;;;1.48;0.32;;;18.70;37.50;;;;;;4937708;29;20032;-78
2023/12/30 12:35:37;;;;;;;0.45;0.20;;;20.40;34.60;;;;;;4937845;29;20030;-80
2023/12/30 12:38:09;;;;;;;0.75;0.35;;;21.90;31.30;;;;;;4937541;29;20129;-78
2023/12/30 12:41:19;;;;;;;0.40;0.30;;;23.10;28.60;;;;;;4935473;29;20066;-77
2023/12/30 12:48:50;;;;;;;1.30;0.35;;;26.50;20.80;;;;;;4958916;23;20059;-76
2023/12/30 12:51:16;;;;;;;1.20;0.30;;;25.70;20.30;;;;;;4937488;29;20019;-80
2023/12/30 12:53:42;;;;;;;1.42;0.60;;;23.80;23.70;;;;;;4954574;29;20150;-76
2023/12/30 12:56:08;;;;;;;1.27;0.40;;;22.00;27.60;;;;;;4954426;28;20075;-78
2023/12/30 12:58:34;;;;;;;1.30;0.40;;;21.10;30.20;;;;;;4954411;28;20421;-78
2023/12/30 13:00:59;;;;;;;0.25;0.10;;;21.20;29.80;;;;;;4954578;28;20024;-79
2023/12/30 13:03:25;;;;;;;0.13;0.10;;;20.20;31.20;;;;;;4954320;28;20027;-76
2023/12/30 13:05:51;;;;;;;0.20;0.20;;;19.30;33.60;;;;;;4936937;29;20068;-76
2023/12/30 13:08:17;;;;;;;0.43;0.22;;;18.90;35.20;;;;;;4954476;29;20027;-77